Time;durP1;ratioP1;P1;durP2;ratioP2;P2;SDS_P1;SDS_P2;PMS_P1;PMS_P2;Temp;Humidity;BMP_temperature;BMP_pressure;BME280_temperature;BME280_humidity;BME280_pressure;Samples;Min_cycle;Max_cycle;Signal;HPM_P1;HPM_P2
2022/06/24 00:01:21;;;;;;;4.50;4.10;;;;;;;;;;5114363;28;20535;-69
2022/06/24 00:03:49;;;;;;;5.43;4.70;;;;;;;;;;5114356;28;20881;-69
2022/06/24 00:06:17;;;;;;;4.57;4.27;;;;;;;;;;5114388;28;20492;-68
2022/06/24 00:08:54;;;;;;;5.47;4.10;;;;;;;;;;5114361;28;20445;-68
2022/06/24 00:11:29;;;;;;;4.63;4.23;;;;;;;;;;5114262;28;20519;-68
2022/06/24 00:14:07;;;;;;;4.70;4.37;;;;;;;;;;5114570;28;20470;-70
2022/06/24 00:16:53;;;;;;;6.13;4.53;;;;;;;;;;5113960;28;20444;-69
2022/06/24 00:19:20;;;;;;;7.77;4.10;;;;;;;;;;5113901;28;20433;-70
2022/06/24 00:21:57;;;;;;;4.93;4.53;;;;;;;;;;5114367;28;20479;-71
2022/06/24 00:24:25;;;;;;;4.53;4.13;;;;;;;;;;5113887;28;20471;-69
2022/06/24 00:26:53;;;;;;;4.93;4.07;;;;;;;;;;5113998;28;20444;-71
2022/06/24 00:29:21;;;;;;;4.00;3.70;;;;;;;;;;5114056;28;20527;-70
2022/06/24 00:32:01;;;;;;;5.03;4.60;;;;;;;;;;5113989;28;20468;-69
2022/06/24 00:34:28;;;;;;;7.37;4.10;;;;;;;;;;5113972;28;20907;-69
2022/06/24 00:36:55;;;;;;;6.47;4.07;;;;;;;;;;5114084;28;20440;-70
2022/06/24 00:39:32;;;;;;;4.43;4.13;;;;;;;;;;5114339;28;20522;-70
2022/06/24 00:42:01;;;;;;;11.03;4.93;;;;;;;;;;5116764;28;20518;-71
2022/06/24 00:44:29;;;;;;;4.93;4.17;;;;;;;;;;5118630;28;20530;-70
2022/06/24 00:46:59;;;;;;;5.67;4.50;;;;;;;;;;5118030;28;20545;-70
2022/06/24 00:49:29;;;;;;;5.93;4.40;;;;;;;;;;5117849;28;21014;-70
2022/06/24 00:51:56;;;;;;;4.07;3.77;;;;;;;;;;5117983;28;20574;-70
2022/06/24 00:54:25;;;;;;;4.00;3.60;;;;;;;;;;5117622;28;20474;-70
2022/06/24 00:56:56;;;;;;;4.40;4.03;;;;;;;;;;5117516;28;20451;-70
2022/06/24 00:59:25;;;;;;;4.27;3.97;;;;;;;;;;5117686;28;20428;-72
2022/06/24 01:01:53;;;;;;;4.13;3.83;;;;;;;;;;5117753;28;20443;-71
2022/06/24 01:04:20;;;;;;;5.27;4.87;;;;;;;;;;5117512;28;20474;-71
2022/06/24 01:06:47;;;;;;;5.13;4.57;;;;;;;;;;5117848;28;20474;-70
2022/06/24 01:09:19;;;;;;;4.57;4.17;;;;;;;;;;5117475;28;20949;-71
2022/06/24 01:11:46;;;;;;;4.60;3.90;;;;;;;;;;5117726;28;20463;-70
2022/06/24 01:14:14;;;;;;;12.63;4.50;;;;;;;;;;5117620;28;20476;-70
2022/06/24 01:16:43;;;;;;;5.07;3.90;;;;;;;;;;5117432;28;20522;-71
2022/06/24 01:19:11;;;;;;;5.03;4.23;;;;;;;;;;5117469;28;20526;-71
2022/06/24 01:21:40;;;;;;;4.97;4.47;;;;;;;;;;5117607;28;20526;-72
2022/06/24 01:24:09;;;;;;;5.93;4.33;;;;;;;;;;5117365;28;20490;-71
2022/06/24 01:26:36;;;;;;;4.60;4.13;;;;;;;;;;5117306;28;20540;-71
2022/06/24 01:29:04;;;;;;;5.07;4.67;;;;;;;;;;5117309;28;20475;-70
2022/06/24 01:31:31;;;;;;;4.17;3.77;;;;;;;;;;5116960;28;20442;-70
2022/06/24 01:33:59;;;;;;;4.97;4.57;;;;;;;;;;5117055;28;21075;-70
2022/06/24 01:36:26;;;;;;;7.97;3.83;;;;;;;;;;5117245;28;20492;-70
2022/06/24 01:38:55;;;;;;;7.50;4.40;;;;;;;;;;5117062;28;20529;-71
2022/06/24 01:41:22;;;;;;;4.73;4.30;;;;;;;;;;5117134;28;20857;-71
2022/06/24 01:43:49;;;;;;;4.60;4.20;;;;;;;;;;5117102;28;20541;-71
2022/06/24 01:46:16;;;;;;;4.50;4.10;;;;;;;;;;5116703;28;20527;-70
2022/06/24 01:48:43;;;;;;;5.60;4.10;;;;;;;;;;5116592;28;20439;-70
2022/06/24 01:51:12;;;;;;;5.00;4.00;;;;;;;;;;5116740;28;20466;-71
2022/06/24 01:53:40;;;;;;;8.00;3.77;;;;;;;;;;5116668;28;20574;-70
2022/06/24 01:56:08;;;;;;;4.23;3.93;;;;;;;;;;5117588;28;20427;-71
2022/06/24 01:58:35;;;;;;;4.90;4.50;;;;;;;;;;5116701;28;20443;-70
2022/06/24 02:01:03;;;;;;;4.30;4.00;;;;;;;;;;5116729;28;20528;-71
2022/06/24 02:03:30;;;;;;;4.13;3.70;;;;;;;;;;5116807;28;20863;-70
2022/06/24 02:06:01;;;;;;;4.60;4.20;;;;;;;;;;5116647;28;20858;-70
2022/06/24 02:08:28;;;;;;;4.43;4.13;;;;;;;;;;5116800;28;20428;-70
2022/06/24 02:13:42;;;;;;;5.00;3.53;;;;;;;;;;5116359;28;20391;-71
2022/06/24 02:16:09;;;;;;;8.40;4.17;;;;;;;;;;5116053;28;20533;-70
2022/06/24 02:18:36;;;;;;;4.50;4.10;;;;;;;;;;5116805;28;20938;-70
2022/06/24 02:21:04;;;;;;;4.60;4.20;;;;;;;;;;5116357;28;20480;-70
2022/06/24 02:23:31;;;;;;;4.77;4.37;;;;;;;;;;5116198;28;20513;-70
2022/06/24 02:25:59;;;;;;;3.97;3.57;;;;;;;;;;5116254;28;20534;-71
2022/06/24 02:28:26;;;;;;;4.20;3.83;;;;;;;;;;5116070;28;20838;-70
2022/06/24 02:30:58;;;;;;;4.33;4.00;;;;;;;;;;5115835;28;20523;-71
2022/06/24 02:33:26;;;;;;;5.97;4.17;;;;;;;;;;5116315;28;20826;-70
2022/06/24 02:35:53;;;;;;;5.23;4.30;;;;;;;;;;5116737;28;20520;-71
2022/06/24 02:38:20;;;;;;;6.97;4.50;;;;;;;;;;5115906;28;20447;-70
2022/06/24 02:40:48;;;;;;;4.53;4.13;;;;;;;;;;5116252;28;20469;-70
2022/06/24 02:43:17;;;;;;;5.00;4.60;;;;;;;;;;5115536;28;20472;-69
2022/06/24 02:45:44;;;;;;;5.90;4.33;;;;;;;;;;5116215;28;20452;-71
2022/06/24 02:48:13;;;;;;;4.43;4.07;;;;;;;;;;5115930;28;20449;-69
2022/06/24 02:50:41;;;;;;;5.53;5.03;;;;;;;;;;5116520;28;20477;-69
2022/06/24 02:53:08;;;;;;;6.50;5.00;;;;;;;;;;5115355;28;20529;-70
2022/06/24 02:55:35;;;;;;;5.87;5.20;;;;;;;;;;5115301;28;20565;-71
2022/06/24 02:58:02;;;;;;;8.00;4.80;;;;;;;;;;5115581;28;20523;-70
2022/06/24 03:00:30;;;;;;;9.23;5.87;;;;;;;;;;5114953;28;20522;-71
2022/06/24 03:02:57;;;;;;;6.20;5.67;;;;;;;;;;5115352;28;20489;-71
2022/06/24 03:05:26;;;;;;;10.90;5.93;;;;;;;;;;5115072;28;20809;-70
2022/06/24 03:07:53;;;;;;;8.43;6.10;;;;;;;;;;5115138;28;20536;-72
2022/06/24 03:10:21;;;;;;;9.57;6.13;;;;;;;;;;5115267;28;20519;-72
2022/06/24 03:12:48;;;;;;;9.40;7.80;;;;;;;;;;5115032;28;20535;-71
2022/06/24 03:15:15;;;;;;;9.53;8.30;;;;;;;;;;5114785;28;20463;-71
2022/06/24 03:17:42;;;;;;;13.53;8.77;;;;;;;;;;5114791;28;20479;-70
2022/06/24 03:20:10;;;;;;;13.07;9.37;;;;;;;;;;5114764;28;20508;-71
2022/06/24 03:22:39;;;;;;;13.73;9.60;;;;;;;;;;5115131;28;20545;-71
2022/06/24 03:25:07;;;;;;;12.70;11.43;;;;;;;;;;5115021;28;20530;-69
2022/06/24 03:27:35;;;;;;;17.47;12.00;;;;;;;;;;5115055;28;20795;-71
2022/06/24 03:30:02;;;;;;;16.73;12.70;;;;;;;;;;5115096;28;20526;-71
2022/06/24 03:32:29;;;;;;;16.57;13.60;;;;;;;;;;5115662;28;20625;-71
2022/06/24 03:34:57;;;;;;;16.77;13.67;;;;;;;;;;5114785;28;20561;-68
2022/06/24 03:37:24;;;;;;;16.63;14.70;;;;;;;;;;5114813;28;21026;-72
2022/06/24 03:39:52;;;;;;;25.40;15.70;;;;;;;;;;5114856;28;20453;-69
2022/06/24 03:42:20;;;;;;;20.50;15.17;;;;;;;;;;5114773;28;20454;-69
2022/06/24 03:44:47;;;;;;;23.07;16.03;;;;;;;;;;5114432;28;20870;-69
2022/06/24 03:47:14;;;;;;;18.93;15.13;;;;;;;;;;5114726;28;20525;-70
2022/06/24 03:49:41;;;;;;;17.23;14.03;;;;;;;;;;5114324;28;20475;-69
2022/06/24 03:52:09;;;;;;;14.13;12.67;;;;;;;;;;5113751;28;20534;-69
2022/06/24 03:54:36;;;;;;;20.37;12.63;;;;;;;;;;5113627;28;20481;-69
2022/06/24 03:57:05;;;;;;;14.93;11.97;;;;;;;;;;5113417;28;20447;-70
2022/06/24 03:59:33;;;;;;;15.03;11.13;;;;;;;;;;5113641;28;20987;-69
2022/06/24 04:02:00;;;;;;;11.23;10.10;;;;;;;;;;5113735;28;20486;-69
2022/06/24 04:04:27;;;;;;;13.00;10.97;;;;;;;;;;5113701;28;20485;-69
2022/06/24 04:06:54;;;;;;;12.83;10.30;;;;;;;;;;5113759;28;20534;-69
2022/06/24 04:09:22;;;;;;;10.60;9.50;;;;;;;;;;5113748;28;20510;-70
2022/06/24 04:11:49;;;;;;;10.70;9.70;;;;;;;;;;5113531;28;20579;-69
2022/06/24 04:15:13;;;;;;;12.30;9.43;;;;;;;;;;5113528;28;20531;-69
2022/06/24 04:17:06;;;;;;;10.80;9.90;;;;;;;;;;5113614;28;20517;-69
2022/06/24 04:19:35;;;;;;;12.83;10.00;;;;;;;;;;5113765;28;20471;-69
2022/06/24 04:22:02;;;;;;;19.40;11.00;;;;;;;;;;5113619;28;20439;-69
2022/06/24 04:24:30;;;;;;;11.17;10.03;;;;;;;;;;5113635;28;20451;-69
2022/06/24 04:26:57;;;;;;;13.33;9.70;;;;;;;;;;5113791;28;20508;-69
2022/06/24 04:29:25;;;;;;;12.03;9.30;;;;;;;;;;5113635;28;20523;-69
2022/06/24 04:31:53;;;;;;;10.33;9.23;;;;;;;;;;5113309;28;20510;-69
2022/06/24 04:34:20;;;;;;;12.17;10.13;;;;;;;;;;5113917;28;20471;-69
2022/06/24 04:36:47;;;;;;;13.80;9.27;;;;;;;;;;5113727;28;20454;-69
2022/06/24 04:39:14;;;;;;;10.07;7.87;;;;;;;;;;5113910;28;20443;-69
2022/06/24 04:41:42;;;;;;;10.57;8.23;;;;;;;;;;5113486;28;20533;-70
2022/06/24 04:44:09;;;;;;;11.60;8.60;;;;;;;;;;5113706;28;20860;-69
2022/06/24 04:46:38;;;;;;;11.90;8.33;;;;;;;;;;5113810;28;20776;-70
2022/06/24 04:49:05;;;;;;;11.27;10.07;;;;;;;;;;5113890;28;20866;-69
2022/06/24 04:51:32;;;;;;;13.10;10.60;;;;;;;;;;5113258;28;20471;-69
2022/06/24 04:53:59;;;;;;;11.97;10.63;;;;;;;;;;5113526;28;20525;-69
2022/06/24 04:56:27;;;;;;;14.53;10.53;;;;;;;;;;5113316;28;20869;-69
2022/06/24 04:58:55;;;;;;;18.27;10.80;;;;;;;;;;5113226;28;20486;-69
2022/06/24 05:01:22;;;;;;;12.30;11.00;;;;;;;;;;5113640;28;20499;-69
2022/06/24 05:03:51;;;;;;;14.20;11.30;;;;;;;;;;5113437;28;20880;-69
2022/06/24 05:06:18;;;;;;;14.27;11.77;;;;;;;;;;5113213;28;20467;-70
2022/06/24 05:08:47;;;;;;;17.97;11.40;;;;;;;;;;5113434;28;20488;-69
2022/06/24 05:11:14;;;;;;;13.33;12.03;;;;;;;;;;5113608;28;20439;-69
2022/06/24 05:13:41;;;;;;;15.67;11.87;;;;;;;;;;5113289;28;21005;-69
2022/06/24 05:16:09;;;;;;;16.37;11.63;;;;;;;;;;5113251;28;20478;-69
2022/06/24 05:18:36;;;;;;;11.20;10.10;;;;;;;;;;5113176;28;20481;-69
2022/06/24 05:21:04;;;;;;;11.57;10.27;;;;;;;;;;5113523;28;20506;-70
2022/06/24 05:23:32;;;;;;;12.93;10.40;;;;;;;;;;5114353;28;20844;-69
2022/06/24 05:25:59;;;;;;;11.00;9.87;;;;;;;;;;5113731;28;20488;-69
2022/06/24 05:28:26;;;;;;;16.17;12.13;;;;;;;;;;5116950;28;20445;-69
2022/06/24 05:30:57;;;;;;;13.80;10.80;;;;;;;;;;5117151;28;20459;-70
2022/06/24 05:33:24;;;;;;;11.10;9.93;;;;;;;;;;5117278;28;20470;-69
2022/06/24 05:35:53;;;;;;;13.90;11.77;;;;;;;;;;5117174;28;20492;-69
2022/06/24 05:38:23;;;;;;;13.33;12.03;;;;;;;;;;5117160;28;20797;-69
2022/06/24 05:40:50;;;;;;;15.23;11.27;;;;;;;;;;5116948;28;20947;-69
2022/06/24 05:43:18;;;;;;;12.73;11.50;;;;;;;;;;5117111;28;20441;-69
2022/06/24 05:45:45;;;;;;;15.50;12.37;;;;;;;;;;5116792;28;20510;-69
2022/06/24 05:48:12;;;;;;;14.83;11.73;;;;;;;;;;5117669;28;20450;-69
2022/06/24 05:50:40;;;;;;;14.60;12.20;;;;;;;;;;5116734;28;20484;-69
2022/06/24 05:55:58;;;;;;;14.80;13.20;;;;;;;;;;5116523;28;20899;-69
2022/06/24 05:58:25;;;;;;;22.17;14.43;;;;;;;;;;5116791;28;20426;-68
2022/06/24 06:00:53;;;;;;;26.57;14.97;;;;;;;;;;5116384;28;20536;-69
2022/06/24 06:03:20;;;;;;;21.60;15.37;;;;;;;;;;5116396;28;20446;-70
2022/06/24 06:05:48;;;;;;;29.50;19.07;;;;;;;;;;5116151;28;20480;-69
2022/06/24 06:08:15;;;;;;;26.53;21.23;;;;;;;;;;5116593;28;20799;-69
2022/06/24 06:10:43;;;;;;;35.13;24.20;;;;;;;;;;5116226;28;20473;-69
2022/06/24 06:13:12;;;;;;;30.10;24.20;;;;;;;;;;5116043;28;20453;-69
2022/06/24 06:15:40;;;;;;;31.90;24.63;;;;;;;;;;5116842;28;20938;-69
2022/06/24 06:18:08;;;;;;;27.90;24.93;;;;;;;;;;5116650;28;20450;-69
2022/06/24 06:20:35;;;;;;;36.87;26.10;;;;;;;;;;5116077;28;20489;-70
2022/06/24 06:23:02;;;;;;;24.97;22.67;;;;;;;;;;5116393;28;20882;-70
2022/06/24 06:25:29;;;;;;;29.80;24.30;;;;;;;;;;5116292;28;20666;-69
2022/06/24 06:27:57;;;;;;;30.97;22.97;;;;;;;;;;5116457;28;20469;-69
2022/06/24 06:30:25;;;;;;;26.67;22.50;;;;;;;;;;5115983;28;20446;-69
2022/06/24 06:32:53;;;;;;;29.17;24.90;;;;;;;;;;5116427;28;20443;-69
2022/06/24 06:35:20;;;;;;;28.07;22.10;;;;;;;;;;5116718;28;20438;-69
2022/06/24 06:37:47;;;;;;;29.87;26.67;;;;;;;;;;5115065;28;20536;-69
2022/06/24 06:40:15;;;;;;;29.23;26.10;;;;;;;;;;5115187;28;20532;-70
2022/06/24 06:42:42;;;;;;;26.43;23.67;;;;;;;;;;5115628;28;20445;-70
2022/06/24 06:45:10;;;;;;;29.00;23.50;;;;;;;;;;5115761;28;20472;-70
2022/06/24 06:47:39;;;;;;;23.60;20.43;;;;;;;;;;5115821;28;20941;-71
2022/06/24 06:50:06;;;;;;;27.80;22.10;;;;;;;;;;5115353;28;20499;-70
2022/06/24 06:52:34;;;;;;;25.60;20.80;;;;;;;;;;5115769;28;20539;-70
2022/06/24 06:55:02;;;;;;;22.53;18.07;;;;;;;;;;5115824;28;20438;-70
2022/06/24 06:57:29;;;;;;;18.40;15.43;;;;;;;;;;5115716;28;20533;-70
2022/06/24 06:59:56;;;;;;;21.93;16.20;;;;;;;;;;5115954;28;20492;-70
2022/06/24 07:02:23;;;;;;;19.07;14.30;;;;;;;;;;5115058;28;20529;-70
2022/06/24 07:04:52;;;;;;;18.10;15.10;;;;;;;;;;5115112;28;20921;-70
2022/06/24 07:07:19;;;;;;;19.63;12.70;;;;;;;;;;5115590;28;20521;-70
2022/06/24 07:09:46;;;;;;;18.10;12.60;;;;;;;;;;5115121;28;20537;-70
2022/06/24 07:12:14;;;;;;;14.97;13.30;;;;;;;;;;5115459;28;20945;-70
2022/06/24 07:14:42;;;;;;;13.40;11.13;;;;;;;;;;5115235;28;20484;-70
2022/06/24 07:17:09;;;;;;;12.43;11.23;;;;;;;;;;5114969;28;20941;-71
2022/06/24 07:19:36;;;;;;;15.40;10.80;;;;;;;;;;5114916;28;20442;-70
2022/06/24 07:22:05;;;;;;;13.37;9.33;;;;;;;;;;5115803;28;20477;-70
2022/06/24 07:24:33;;;;;;;13.23;9.30;;;;;;;;;;5115089;28;20485;-70
2022/06/24 07:27:02;;;;;;;11.97;9.37;;;;;;;;;;5114798;28;20509;-70
2022/06/24 07:29:31;;;;;;;12.50;8.30;;;;;;;;;;5114589;28;20523;-70
2022/06/24 07:31:58;;;;;;;8.73;7.63;;;;;;;;;;5114626;28;20454;-70
2022/06/24 07:34:26;;;;;;;13.43;7.93;;;;;;;;;;5114953;28;20470;-70
2022/06/24 07:36:53;;;;;;;10.03;8.27;;;;;;;;;;5115358;28;20502;-70
2022/06/24 07:39:22;;;;;;;7.63;6.83;;;;;;;;;;5114786;28;20536;-70
2022/06/24 07:41:49;;;;;;;6.67;5.63;;;;;;;;;;5115024;28;21002;-70
2022/06/24 07:44:16;;;;;;;7.30;6.60;;;;;;;;;;5115013;28;20525;-71
2022/06/24 07:46:44;;;;;;;8.80;6.00;;;;;;;;;;5114297;28;20490;-70
2022/06/24 07:49:11;;;;;;;6.80;6.20;;;;;;;;;;5114031;28;20441;-71
2022/06/24 07:51:38;;;;;;;8.23;5.70;;;;;;;;;;5114117;28;20553;-70
2022/06/24 07:54:07;;;;;;;6.70;4.90;;;;;;;;;;5114438;28;20435;-70
2022/06/24 07:59:21;;;;;;;8.30;4.83;;;;;;;;;;5114519;28;20409;-70
2022/06/24 08:01:48;;;;;;;6.40;4.73;;;;;;;;;;5114911;28;20480;-70
2022/06/24 08:04:15;;;;;;;4.63;4.23;;;;;;;;;;5114220;28;20948;-70
2022/06/24 08:06:46;;;;;;;7.50;4.53;;;;;;;;;;5114166;28;20561;-71
2022/06/24 08:09:13;;;;;;;5.63;4.70;;;;;;;;;;5114002;28;20485;-70
2022/06/24 08:11:42;;;;;;;7.13;5.00;;;;;;;;;;5113526;28;20453;-70
2022/06/24 08:14:09;;;;;;;10.60;5.33;;;;;;;;;;5113916;28;20954;-70
2022/06/24 08:16:36;;;;;;;5.70;4.13;;;;;;;;;;5114172;28;20538;-70
2022/06/24 08:19:04;;;;;;;4.90;4.03;;;;;;;;;;5113800;28;20445;-70
2022/06/24 08:21:31;;;;;;;7.07;3.97;;;;;;;;;;5113763;28;20530;-70
2022/06/24 08:23:58;;;;;;;6.70;4.50;;;;;;;;;;5113833;28;20450;-69
2022/06/24 08:26:26;;;;;;;6.37;4.83;;;;;;;;;;5114046;28;21062;-69
2022/06/24 08:28:54;;;;;;;10.00;4.40;;;;;;;;;;5114047;28;20534;-69
2022/06/24 08:31:22;;;;;;;6.97;4.90;;;;;;;;;;5113733;28;20451;-69
2022/06/24 08:33:49;;;;;;;5.70;4.30;;;;;;;;;;5113942;28;20480;-69
2022/06/24 08:36:17;;;;;;;5.53;3.70;;;;;;;;;;5114502;28;20868;-69
2022/06/24 08:38:44;;;;;;;5.97;4.77;;;;;;;;;;5114000;28;20795;-69
2022/06/24 08:41:11;;;;;;;6.37;5.23;;;;;;;;;;5114078;28;20444;-70
2022/06/24 08:43:39;;;;;;;6.90;4.20;;;;;;;;;;5113562;28;20451;-70
2022/06/24 08:46:07;;;;;;;6.40;4.23;;;;;;;;;;5113915;28;20567;-70
2022/06/24 08:48:34;;;;;;;4.80;3.60;;;;;;;;;;5113355;28;20452;-69
2022/06/24 08:51:02;;;;;;;6.30;4.33;;;;;;;;;;5114179;28;20883;-69
2022/06/24 08:53:30;;;;;;;6.17;4.23;;;;;;;;;;5114021;28;20448;-69
2022/06/24 08:55:58;;;;;;;7.73;4.70;;;;;;;;;;5113811;28;20455;-69
2022/06/24 08:58:25;;;;;;;5.33;4.40;;;;;;;;;;5114130;28;20437;-70
2022/06/24 09:00:52;;;;;;;7.60;4.30;;;;;;;;;;5113825;28;20508;-69
2022/06/24 09:03:21;;;;;;;3.93;3.53;;;;;;;;;;5116970;28;20451;-70
2022/06/24 09:05:49;;;;;;;5.70;4.23;;;;;;;;;;5118035;28;20856;-69
2022/06/24 09:08:17;;;;;;;6.03;4.10;;;;;;;;;;5117338;28;20472;-70
2022/06/24 09:11:05;;;;;;;4.67;4.10;;;;;;;;;;5117420;28;20476;-69
2022/06/24 09:13:41;;;;;;;9.90;4.90;;;;;;;;;;5117365;28;20460;-69
2022/06/24 09:16:09;;;;;;;7.60;4.97;;;;;;;;;;5117964;28;20485;-69
2022/06/24 09:18:38;;;;;;;6.67;4.33;;;;;;;;;;5117279;28;20491;-69
2022/06/24 09:21:05;;;;;;;7.90;4.13;;;;;;;;;;5117527;28;20484;-69
2022/06/24 09:23:32;;;;;;;6.93;5.27;;;;;;;;;;5117524;28;20522;-69
2022/06/24 09:26:01;;;;;;;9.70;5.00;;;;;;;;;;5117394;28;20900;-69
2022/06/24 09:28:28;;;;;;;5.77;4.97;;;;;;;;;;5117249;28;20451;-69
2022/06/24 09:31:01;;;;;;;7.60;4.97;;;;;;;;;;5117591;28;20469;-69
2022/06/24 09:33:28;;;;;;;8.43;5.30;;;;;;;;;;5117303;28;20919;-70
2022/06/24 09:36:02;;;;;;;6.97;4.70;;;;;;;;;;5117849;28;20874;-69
2022/06/24 09:38:29;;;;;;;6.73;5.37;;;;;;;;;;5117274;28;20451;-70
2022/06/24 09:41:00;;;;;;;5.23;4.70;;;;;;;;;;5117201;28;20533;-70
2022/06/24 09:43:30;;;;;;;6.00;5.40;;;;;;;;;;5117021;28;20497;-69
2022/06/24 09:45:57;;;;;;;6.33;5.20;;;;;;;;;;5116907;28;20438;-70
2022/06/24 09:48:28;;;;;;;6.10;4.90;;;;;;;;;;5117368;28;20449;-69
2022/06/24 09:50:56;;;;;;;5.40;4.90;;;;;;;;;;5116550;28;20478;-69
2022/06/24 09:53:25;;;;;;;5.87;5.07;;;;;;;;;;5116891;28;20468;-69
2022/06/24 09:55:53;;;;;;;9.77;5.20;;;;;;;;;;5116466;28;20479;-69
2022/06/24 09:58:21;;;;;;;7.87;5.10;;;;;;;;;;5116603;28;20525;-69
2022/06/24 10:00:47;;;;;;;10.67;9.27;;;;;;;;;;5116748;28;20794;-69
2022/06/24 10:03:15;;;;;;;10.00;9.00;;;;;;;;;;5117059;28;20445;-69
2022/06/24 10:05:43;;;;;;;10.83;9.63;;;;;;;;;;5116793;28;20531;-69
2022/06/24 10:08:14;;;;;;;11.07;8.70;;;;;;;;;;5116807;28;20476;-69
2022/06/24 10:10:46;;;;;;;12.63;11.53;;;;;;;;;;5116700;28;20856;-69
2022/06/24 10:13:16;;;;;;;13.23;11.93;;;;;;;;;;5116673;28;20459;-69
2022/06/24 10:15:43;;;;;;;12.77;11.63;;;;;;;;;;5116748;28;20473;-69
2022/06/24 10:18:11;;;;;;;14.63;12.43;;;;;;;;;;5116135;28;20813;-69
2022/06/24 10:20:43;;;;;;;14.03;12.50;;;;;;;;;;5115897;28;20435;-69
2022/06/24 10:23:30;;;;;;;13.63;12.40;;;;;;;;;;5116459;28;20428;-69
2022/06/24 10:25:58;;;;;;;13.93;12.53;;;;;;;;;;5116238;28;20872;-69
2022/06/24 10:28:26;;;;;;;13.03;11.80;;;;;;;;;;5116248;28;20504;-69
2022/06/24 10:30:59;;;;;;;12.73;11.60;;;;;;;;;;5115768;28;20477;-69
2022/06/24 10:33:28;;;;;;;12.47;11.27;;;;;;;;;;5115829;28;20435;-69
2022/06/24 10:35:56;;;;;;;11.70;10.63;;;;;;;;;;5115964;28;20440;-69
2022/06/24 10:38:24;;;;;;;11.63;10.57;;;;;;;;;;5115967;28;20920;-69
2022/06/24 10:40:52;;;;;;;8.80;8.00;;;;;;;;;;5115650;28;20555;-69
2022/06/24 10:43:34;;;;;;;9.93;9.03;;;;;;;;;;5115930;28;20447;-69
2022/06/24 10:46:18;;;;;;;9.47;8.50;;;;;;;;;;5116100;28;20426;-69
2022/06/24 10:48:59;;;;;;;8.53;7.70;;;;;;;;;;5115883;28;20609;-69
2022/06/24 10:51:28;;;;;;;9.30;8.50;;;;;;;;;;5115675;28;20512;-69
2022/06/24 10:54:17;;;;;;;8.10;7.40;;;;;;;;;;5116065;28;20463;-68
2022/06/24 10:56:46;;;;;;;6.13;5.47;;;;;;;;;;5115604;28;20439;-69
2022/06/24 10:59:14;;;;;;;7.57;6.20;;;;;;;;;;5115537;28;20478;-69
2022/06/24 11:01:46;;;;;;;6.10;5.60;;;;;;;;;;5115234;28;20519;-69
2022/06/24 11:04:16;;;;;;;5.60;5.20;;;;;;;;;;5115218;28;20523;-69
2022/06/24 11:07:04;;;;;;;5.67;4.90;;;;;;;;;;5115473;28;20500;-69
2022/06/24 11:09:31;;;;;;;4.67;4.27;;;;;;;;;;5109175;28;20548;-69
2022/06/24 11:11:59;;;;;;;4.10;3.90;;;;;;;;;;5115304;28;20443;-69
2022/06/24 11:14:26;;;;;;;4.07;3.83;;;;;;;;;;5114997;28;20505;-69
2022/06/24 11:16:55;;;;;;;4.00;3.40;;;;;;;;;;5115081;28;20455;-69
2022/06/24 11:19:22;;;;;;;4.20;3.30;;;;;;;;;;5114840;28;20531;-69
2022/06/24 11:21:49;;;;;;;3.60;3.30;;;;;;;;;;5115163;28;20445;-69
2022/06/24 11:24:19;;;;;;;3.60;3.33;;;;;;;;;;5114565;28;20532;-69
2022/06/24 11:27:01;;;;;;;3.57;3.37;;;;;;;;;;5115052;28;20467;-69
2022/06/24 11:29:28;;;;;;;2.83;2.63;;;;;;;;;;5114729;28;20504;-69
2022/06/24 11:31:59;;;;;;;3.87;3.57;;;;;;;;;;5114910;28;20526;-69
2022/06/24 11:34:26;;;;;;;3.70;3.47;;;;;;;;;;5114957;28;20427;-69
2022/06/24 11:36:54;;;;;;;3.50;3.20;;;;;;;;;;5114987;28;20453;-68
2022/06/24 11:39:21;;;;;;;4.07;3.30;;;;;;;;;;5115466;28;20840;-69
2022/06/24 11:41:49;;;;;;;3.60;3.40;;;;;;;;;;5114402;28;20480;-69
2022/06/24 11:44:32;;;;;;;3.23;3.03;;;;;;;;;;5114754;28;20502;-69
2022/06/24 11:47:00;;;;;;;4.07;3.70;;;;;;;;;;5114936;28;20517;-70
2022/06/24 11:49:28;;;;;;;4.10;3.70;;;;;;;;;;5114774;28;20479;-69
2022/06/24 11:51:55;;;;;;;4.30;4.00;;;;;;;;;;5113859;28;20435;-69
2022/06/24 11:54:27;;;;;;;6.87;4.33;;;;;;;;;;5113407;28;20444;-69
2022/06/24 11:56:54;;;;;;;4.90;4.40;;;;;;;;;;5113756;28;20434;-69
2022/06/24 11:59:22;;;;;;;6.57;3.87;;;;;;;;;;5113428;28;20531;-69
2022/06/24 12:01:49;;;;;;;5.43;5.03;;;;;;;;;;5113896;28;20530;-69
2022/06/24 12:04:18;;;;;;;4.50;4.10;;;;;;;;;;5113361;28;20526;-69
2022/06/24 12:06:46;;;;;;;4.83;4.43;;;;;;;;;;5113334;28;20531;-69
2022/06/24 12:09:14;;;;;;;5.60;5.10;;;;;;;;;;5114030;28;20874;-69
2022/06/24 12:11:42;;;;;;;7.70;4.70;;;;;;;;;;5113168;28;20471;-69
2022/06/24 12:14:10;;;;;;;4.60;4.30;;;;;;;;;;5113393;28;20532;-68
2022/06/24 12:16:57;;;;;;;5.37;4.97;;;;;;;;;;5112960;28;20546;-69
2022/06/24 12:19:25;;;;;;;4.80;4.47;;;;;;;;;;5113687;28;20453;-69
2022/06/24 12:22:03;;;;;;;6.03;5.53;;;;;;;;;;5113337;28;20518;-69
2022/06/24 12:24:30;;;;;;;4.70;4.40;;;;;;;;;;5113143;28;20979;-68
2022/06/24 12:26:57;;;;;;;4.03;3.80;;;;;;;;;;5113470;28;20491;-68
2022/06/24 12:29:30;;;;;;;4.17;3.87;;;;;;;;;;5113228;28;20530;-68
2022/06/24 12:31:58;;;;;;;5.60;5.20;;;;;;;;;;5113218;28;20441;-69
2022/06/24 12:34:27;;;;;;;6.10;5.60;;;;;;;;;;5113408;28;20477;-69
2022/06/24 12:36:58;;;;;;;8.43;4.97;;;;;;;;;;5112068;28;20445;-68
2022/06/24 12:39:29;;;;;;;4.70;4.40;;;;;;;;;;5113116;28;20895;-68
2022/06/24 12:41:57;;;;;;;5.73;5.23;;;;;;;;;;5112969;28;20528;-68
2022/06/24 12:44:24;;;;;;;4.50;4.10;;;;;;;;;;5113255;28;20441;-68
2022/06/24 12:52:32;;;;;;;5.73;5.23;;;;;;;;;;5113299;28;20458;-68
2022/06/24 12:55:00;;;;;;;4.50;4.20;;;;;;;;;;5114272;28;20954;-67
2022/06/24 12:57:27;;;;;;;4.00;3.70;;;;;;;;;;5114002;28;20476;-67
2022/06/24 12:59:54;;;;;;;5.30;4.13;;;;;;;;;;5113507;28;20466;-74
2022/06/24 13:02:22;;;;;;;5.83;5.33;;;;;;;;;;5113615;28;20646;-71
2022/06/24 13:04:50;;;;;;;6.20;5.27;;;;;;;;;;5113821;28;20488;-71
2022/06/24 13:07:17;;;;;;;4.50;4.17;;;;;;;;;;5113574;28;20511;-69
2022/06/24 13:09:45;;;;;;;4.40;4.00;;;;;;;;;;5113641;28;20448;-69
2022/06/24 13:12:12;;;;;;;5.63;4.10;;;;;;;;;;5113583;28;20454;-72
2022/06/24 13:14:39;;;;;;;4.10;3.80;;;;;;;;;;5113291;28;20888;-70
2022/06/24 13:17:06;;;;;;;3.00;2.80;;;;;;;;;;5113383;28;20460;-72
2022/06/24 13:19:34;;;;;;;2.70;2.50;;;;;;;;;;5113831;28;20446;-71
2022/06/24 13:22:02;;;;;;;3.33;3.10;;;;;;;;;;5113619;28;20866;-71
2022/06/24 13:24:30;;;;;;;4.60;3.03;;;;;;;;;;5113508;28;20985;-71
2022/06/24 13:26:58;;;;;;;3.67;3.17;;;;;;;;;;5113296;28;20439;-71
2022/06/24 13:29:25;;;;;;;2.97;2.70;;;;;;;;;;5133428;28;20416;-71
2022/06/24 13:31:53;;;;;;;3.20;2.90;;;;;;;;;;5132994;28;20540;-71
2022/06/24 13:34:20;;;;;;;3.43;3.27;;;;;;;;;;5128683;28;20445;-71
2022/06/24 13:36:47;;;;;;;7.93;3.00;;;;;;;;;;5132469;28;20441;-71
2022/06/24 13:39:16;;;;;;;3.83;3.47;;;;;;;;;;5132529;28;20443;-72
2022/06/24 13:41:43;;;;;;;3.53;3.33;;;;;;;;;;5132938;28;20451;-71
2022/06/24 13:44:11;;;;;;;2.90;2.70;;;;;;;;;;5133309;28;20470;-72
2022/06/24 13:46:38;;;;;;;3.07;2.87;;;;;;;;;;5132857;28;20910;-72
2022/06/24 13:49:05;;;;;;;3.03;2.83;;;;;;;;;;5136251;27;20455;-72
2022/06/24 13:51:32;;;;;;;3.63;3.33;;;;;;;;;;5136686;27;20525;-71
2022/06/24 13:54:00;;;;;;;2.87;2.50;;;;;;;;;;5136531;27;20424;-72
2022/06/24 13:56:28;;;;;;;3.20;2.73;;;;;;;;;;5136881;27;20528;-72
2022/06/24 13:58:56;;;;;;;5.10;3.77;;;;;;;;;;5136700;27;20534;-73
2022/06/24 14:01:23;;;;;;;3.63;3.27;;;;;;;;;;5136948;27;20452;-72
2022/06/24 14:03:50;;;;;;;3.20;2.90;;;;;;;;;;5137080;27;20472;-72
2022/06/24 14:06:17;;;;;;;3.60;3.30;;;;;;;;;;5136625;27;20492;-72
2022/06/24 14:08:45;;;;;;;2.77;2.60;;;;;;;;;;5136412;27;20449;-71
2022/06/24 14:11:12;;;;;;;4.00;3.50;;;;;;;;;;5136453;27;20441;-71
2022/06/24 14:13:41;;;;;;;2.90;2.60;;;;;;;;;;5136732;27;20897;-71
2022/06/24 14:16:08;;;;;;;3.10;2.90;;;;;;;;;;5136624;27;20526;-71
2022/06/24 14:18:36;;;;;;;3.60;3.27;;;;;;;;;;5136196;27;20430;-72
2022/06/24 14:21:04;;;;;;;3.60;3.30;;;;;;;;;;5137380;27;20434;-72
2022/06/24 14:26:16;;;;;;;3.93;3.53;;;;;;;;;;5136766;27;20487;-72
2022/06/24 14:28:45;;;;;;;4.00;3.73;;;;;;;;;;5136074;27;20475;-72
2022/06/24 14:31:12;;;;;;;8.87;7.50;;;;;;;;;;5136470;27;20422;-72
2022/06/24 14:33:39;;;;;;;4.30;3.50;;;;;;;;;;5135951;27;20413;-72
2022/06/24 14:36:07;;;;;;;3.73;3.43;;;;;;;;;;5135883;27;20531;-72
2022/06/24 14:41:19;;;;;;;4.13;3.10;;;;;;;;;;5136669;27;20375;-72
2022/06/24 14:43:47;;;;;;;3.90;3.37;;;;;;;;;;5136122;27;20466;-71
2022/06/24 14:46:15;;;;;;;5.17;3.30;;;;;;;;;;5136682;27;20532;-71
2022/06/24 14:48:42;;;;;;;2.93;2.73;;;;;;;;;;5135887;27;20452;-71
2022/06/24 14:51:09;;;;;;;3.23;2.93;;;;;;;;;;5136255;27;20476;-71
2022/06/24 14:53:36;;;;;;;3.33;2.80;;;;;;;;;;5135634;27;20498;-71
2022/06/24 14:56:04;;;;;;;3.30;2.83;;;;;;;;;;5135332;27;20920;-71
2022/06/24 14:58:31;;;;;;;3.30;2.47;;;;;;;;;;5134922;27;20431;-72
2022/06/24 15:01:01;;;;;;;4.03;3.50;;;;;;;;;;5135686;27;20805;-71
2022/06/24 15:03:29;;;;;;;4.00;3.60;;;;;;;;;;5135995;27;20435;-71